EDDR/SCN METAR and TAF weather

Enter ICAO airport designator
Station Type Date Time Source
EDDR METAR 2021/04/13 07:50 UTC NOAA

EDDR 130750Z 04010KT 9999 FEW022 04/M01 Q1031 NOSIG


Station Type Date Time Source
EDDR Decoded METAR 2021/04/13 07:50 UTC NOAA

Saarbruecken / Ensheim, Germany (EDDR) 49-13N 007-07E 320M
Apr 13, 2021 - 03:50 AM EDT / 2021.04.13 0750 UTC
Wind: from the NE (040 degrees) at 12 MPH (10 KT):0
Visibility: greater than 7 mile(s):0
Sky conditions: mostly clear
Temperature: 39 F (4 C)
Dew Point: 30 F (-1 C)
Relative Humidity: 69%
Pressure (altimeter): 30.45 in. Hg (1031 hPa)
ob: EDDR 130750Z 04010KT 9999 FEW022 04/M01 Q1031 NOSIG
cycle: 8

Station Type Date Time Source
EDDR TAF 2021/04/13 06:27 UTC NOAA

TAF EDDR 130500Z 1306/1406 02006KT 9999 SCT025 PROB40
TEMPO 1314/1318 04012KT SCT045TCU

Example: see airport list